sensor_id;sensor_type;location;lat;lon;timestamp;P1;durP1;ratioP1;P2;durP2;ratioP2
48871;SDS011;36154;51.674;7.824;2023-04-06T00:02:10;0.20;;;0.20;;
48871;SDS011;36154;51.674;7.824;2023-04-06T00:04:35;0.20;;;0.20;;
48871;SDS011;36154;51.674;7.824;2023-04-06T00:07:01;0.30;;;0.30;;
48871;SDS011;36154;51.674;7.824;2023-04-06T00:09:26;0.20;;;0.20;;
48871;SDS011;36154;51.674;7.824;2023-04-06T00:11:53;0.30;;;0.30;;
48871;SDS011;36154;51.674;7.824;2023-04-06T00:14:19;0.30;;;0.30;;
48871;SDS011;36154;51.674;7.824;2023-04-06T00:16:45;0.30;;;0.20;;
48871;SDS011;36154;51.674;7.824;2023-04-06T00:19:10;0.20;;;0.20;;
48871;SDS011;36154;51.674;7.824;2023-04-06T00:21:35;0.30;;;0.20;;
48871;SDS011;36154;51.674;7.824;2023-04-06T00:24:01;0.25;;;0.20;;
48871;SDS011;36154;51.674;7.824;2023-04-06T00:26:26;0.20;;;0.20;;
48871;SDS011;36154;51.674;7.824;2023-04-06T00:28:51;0.20;;;0.20;;
48871;SDS011;36154;51.674;7.824;2023-04-06T00:31:17;0.30;;;0.30;;
48871;SDS011;36154;51.674;7.824;2023-04-06T00:33:42;0.30;;;0.30;;
48871;SDS011;36154;51.674;7.824;2023-04-06T00:36:08;0.30;;;0.30;;
48871;SDS011;36154;51.674;7.824;2023-04-06T00:38:33;0.20;;;0.20;;
48871;SDS011;36154;51.674;7.824;2023-04-06T00:40:58;0.20;;;0.20;;
48871;SDS011;36154;51.674;7.824;2023-04-06T00:43:23;0.30;;;0.30;;
48871;SDS011;36154;51.674;7.824;2023-04-06T00:45:49;0.65;;;0.43;;
48871;SDS011;36154;51.674;7.824;2023-04-06T00:48:14;0.30;;;0.30;;
48871;SDS011;36154;51.674;7.824;2023-04-06T00:50:40;0.20;;;0.20;;
48871;SDS011;36154;51.674;7.824;2023-04-06T00:53:05;0.28;;;0.28;;
48871;SDS011;36154;51.674;7.824;2023-04-06T00:55:30;0.20;;;0.20;;
48871;SDS011;36154;51.674;7.824;2023-04-06T00:57:57;0.20;;;0.20;;
48871;SDS011;36154;51.674;7.824;2023-04-06T01:00:24;0.28;;;0.28;;
48871;SDS011;36154;51.674;7.824;2023-04-06T01:02:49;0.20;;;0.20;;
48871;SDS011;36154;51.674;7.824;2023-04-06T01:05:15;0.25;;;0.25;;
48871;SDS011;36154;51.674;7.824;2023-04-06T01:07:40;0.20;;;0.20;;
48871;SDS011;36154;51.674;7.824;2023-04-06T01:10:05;0.20;;;0.20;;
48871;SDS011;36154;51.674;7.824;2023-04-06T01:12:31;0.32;;;0.32;;
48871;SDS011;36154;51.674;7.824;2023-04-06T01:14:59;0.20;;;0.20;;
48871;SDS011;36154;51.674;7.824;2023-04-06T01:17:24;0.20;;;0.20;;
48871;SDS011;36154;51.674;7.824;2023-04-06T01:19:50;0.30;;;0.30;;
48871;SDS011;36154;51.674;7.824;2023-04-06T01:22:18;0.20;;;0.20;;
48871;SDS011;36154;51.674;7.824;2023-04-06T01:24:44;0.73;;;0.30;;
48871;SDS011;36154;51.674;7.824;2023-04-06T01:27:10;0.30;;;0.30;;
48871;SDS011;36154;51.674;7.824;2023-04-06T01:29:35;0.30;;;0.30;;
48871;SDS011;36154;51.674;7.824;2023-04-06T01:32:00;0.22;;;0.22;;
48871;SDS011;36154;51.674;7.824;2023-04-06T01:34:26;0.30;;;0.30;;
48871;SDS011;36154;51.674;7.824;2023-04-06T01:36:51;0.20;;;0.20;;
48871;SDS011;36154;51.674;7.824;2023-04-06T01:39:16;0.20;;;0.20;;
48871;SDS011;36154;51.674;7.824;2023-04-06T01:41:42;0.10;;;0.10;;
48871;SDS011;36154;51.674;7.824;2023-04-06T01:44:07;0.20;;;0.20;;
48871;SDS011;36154;51.674;7.824;2023-04-06T01:46:32;0.20;;;0.20;;
48871;SDS011;36154;51.674;7.824;2023-04-06T01:48:58;0.20;;;0.20;;
48871;SDS011;36154;51.674;7.824;2023-04-06T01:51:23;0.28;;;0.28;;
48871;SDS011;36154;51.674;7.824;2023-04-06T01:53:49;0.20;;;0.20;;
48871;SDS011;36154;51.674;7.824;2023-04-06T01:56:15;0.10;;;0.10;;
48871;SDS011;36154;51.674;7.824;2023-04-06T01:58:40;0.20;;;0.20;;
48871;SDS011;36154;51.674;7.824;2023-04-06T02:01:05;0.22;;;0.20;;
48871;SDS011;36154;51.674;7.824;2023-04-06T02:03:30;0.20;;;0.20;;
48871;SDS011;36154;51.674;7.824;2023-04-06T02:05:56;0.20;;;0.20;;
48871;SDS011;36154;51.674;7.824;2023-04-06T02:08:21;0.30;;;0.30;;
48871;SDS011;36154;51.674;7.824;2023-04-06T02:10:47;0.20;;;0.20;;
48871;SDS011;36154;51.674;7.824;2023-04-06T02:13:12;0.20;;;0.20;;
48871;SDS011;36154;51.674;7.824;2023-04-06T02:15:37;0.20;;;0.20;;
48871;SDS011;36154;51.674;7.824;2023-04-06T02:18:02;0.20;;;0.20;;
48871;SDS011;36154;51.674;7.824;2023-04-06T02:20:28;0.20;;;0.20;;
48871;SDS011;36154;51.674;7.824;2023-04-06T02:22:53;0.38;;;0.10;;
48871;SDS011;36154;51.674;7.824;2023-04-06T02:25:18;0.32;;;0.20;;
48871;SDS011;36154;51.674;7.824;2023-04-06T02:27:43;0.20;;;0.20;;
48871;SDS011;36154;51.674;7.824;2023-04-06T02:30:09;0.20;;;0.20;;
48871;SDS011;36154;51.674;7.824;2023-04-06T02:32:35;0.10;;;0.10;;
48871;SDS011;36154;51.674;7.824;2023-04-06T02:35:00;0.20;;;0.20;;
48871;SDS011;36154;51.674;7.824;2023-04-06T02:37:26;0.25;;;0.20;;
48871;SDS011;36154;51.674;7.824;2023-04-06T02:39:51;0.20;;;0.20;;
48871;SDS011;36154;51.674;7.824;2023-04-06T02:42:16;0.20;;;0.20;;
48871;SDS011;36154;51.674;7.824;2023-04-06T02:44:42;0.20;;;0.20;;
48871;SDS011;36154;51.674;7.824;2023-04-06T02:47:07;0.20;;;0.20;;
48871;SDS011;36154;51.674;7.824;2023-04-06T02:49:33;0.20;;;0.20;;
48871;SDS011;36154;51.674;7.824;2023-04-06T02:51:58;0.93;;;0.30;;
48871;SDS011;36154;51.674;7.824;2023-04-06T02:54:24;0.20;;;0.20;;
48871;SDS011;36154;51.674;7.824;2023-04-06T02:56:49;0.20;;;0.20;;
48871;SDS011;36154;51.674;7.824;2023-04-06T02:59:14;0.32;;;0.20;;
48871;SDS011;36154;51.674;7.824;2023-04-06T03:01:40;0.28;;;0.20;;
48871;SDS011;36154;51.674;7.824;2023-04-06T03:04:05;0.65;;;0.30;;
48871;SDS011;36154;51.674;7.824;2023-04-06T03:06:30;0.20;;;0.20;;
48871;SDS011;36154;51.674;7.824;2023-04-06T03:08:56;0.43;;;0.43;;
48871;SDS011;36154;51.674;7.824;2023-04-06T03:11:21;0.20;;;0.20;;
48871;SDS011;36154;51.674;7.824;2023-04-06T03:13:46;0.20;;;0.20;;
48871;SDS011;36154;51.674;7.824;2023-04-06T03:16:12;0.20;;;0.20;;
48871;SDS011;36154;51.674;7.824;2023-04-06T03:18:37;0.20;;;0.20;;
48871;SDS011;36154;51.674;7.824;2023-04-06T03:21:02;0.20;;;0.20;;
48871;SDS011;36154;51.674;7.824;2023-04-06T03:23:28;0.20;;;0.20;;
48871;SDS011;36154;51.674;7.824;2023-04-06T03:25:53;0.10;;;0.10;;
48871;SDS011;36154;51.674;7.824;2023-04-06T03:28:18;0.35;;;0.35;;
48871;SDS011;36154;51.674;7.824;2023-04-06T03:30:44;0.30;;;0.30;;
48871;SDS011;36154;51.674;7.824;2023-04-06T03:33:10;0.22;;;0.20;;
48871;SDS011;36154;51.674;7.824;2023-04-06T03:35:35;0.10;;;0.10;;
48871;SDS011;36154;51.674;7.824;2023-04-06T03:38:02;0.20;;;0.20;;
48871;SDS011;36154;51.674;7.824;2023-04-06T03:40:27;0.20;;;0.20;;
48871;SDS011;36154;51.674;7.824;2023-04-06T03:42:53;0.43;;;0.20;;
48871;SDS011;36154;51.674;7.824;2023-04-06T03:45:18;0.20;;;0.20;;
48871;SDS011;36154;51.674;7.824;2023-04-06T03:47:43;0.10;;;0.10;;
48871;SDS011;36154;51.674;7.824;2023-04-06T03:50:08;0.30;;;0.30;;
48871;SDS011;36154;51.674;7.824;2023-04-06T03:52:34;0.30;;;0.30;;
48871;SDS011;36154;51.674;7.824;2023-04-06T03:55:01;0.28;;;0.28;;
48871;SDS011;36154;51.674;7.824;2023-04-06T03:57:26;0.28;;;0.28;;
48871;SDS011;36154;51.674;7.824;2023-04-06T03:59:52;0.20;;;0.20;;
48871;SDS011;36154;51.674;7.824;2023-04-06T04:02:17;0.22;;;0.22;;
48871;SDS011;36154;51.674;7.824;2023-04-06T04:04:42;0.32;;;0.32;;
48871;SDS011;36154;51.674;7.824;2023-04-06T04:07:07;0.20;;;0.20;;
48871;SDS011;36154;51.674;7.824;2023-04-06T04:09:33;0.30;;;0.30;;
48871;SDS011;36154;51.674;7.824;2023-04-06T04:11:58;0.35;;;0.22;;
48871;SDS011;36154;51.674;7.824;2023-04-06T04:14:23;0.90;;;0.20;;
48871;SDS011;36154;51.674;7.824;2023-04-06T04:16:49;0.20;;;0.20;;
48871;SDS011;36154;51.674;7.824;2023-04-06T04:19:14;0.35;;;0.30;;
48871;SDS011;36154;51.674;7.824;2023-04-06T04:21:42;0.43;;;0.40;;
48871;SDS011;36154;51.674;7.824;2023-04-06T04:24:12;0.38;;;0.38;;
48871;SDS011;36154;51.674;7.824;2023-04-06T04:26:38;0.30;;;0.30;;
48871;SDS011;36154;51.674;7.824;2023-04-06T04:29:04;0.30;;;0.30;;
48871;SDS011;36154;51.674;7.824;2023-04-06T04:31:29;0.38;;;0.38;;
48871;SDS011;36154;51.674;7.824;2023-04-06T04:33:55;0.40;;;0.40;;
48871;SDS011;36154;51.674;7.824;2023-04-06T04:36:20;0.40;;;0.40;;
48871;SDS011;36154;51.674;7.824;2023-04-06T04:38:46;0.50;;;0.50;;
48871;SDS011;36154;51.674;7.824;2023-04-06T04:41:11;2.03;;;0.55;;
48871;SDS011;36154;51.674;7.824;2023-04-06T04:43:36;4.15;;;1.15;;
48871;SDS011;36154;51.674;7.824;2023-04-06T04:46:02;14.57;;;2.75;;
48871;SDS011;36154;51.674;7.824;2023-04-06T04:48:28;19.75;;;3.75;;
48871;SDS011;36154;51.674;7.824;2023-04-06T04:50:54;11.82;;;3.20;;
48871;SDS011;36154;51.674;7.824;2023-04-06T04:53:20;13.68;;;2.78;;
48871;SDS011;36154;51.674;7.824;2023-04-06T04:55:45;16.92;;;3.63;;
48871;SDS011;36154;51.674;7.824;2023-04-06T04:58:10;23.73;;;3.53;;
48871;SDS011;36154;51.674;7.824;2023-04-06T05:00:39;15.88;;;3.40;;
48871;SDS011;36154;51.674;7.824;2023-04-06T05:03:04;14.80;;;3.45;;
48871;SDS011;36154;51.674;7.824;2023-04-06T05:05:30;12.10;;;2.80;;
48871;SDS011;36154;51.674;7.824;2023-04-06T05:07:56;15.13;;;3.08;;
48871;SDS011;36154;51.674;7.824;2023-04-06T05:10:21;11.85;;;2.80;;
48871;SDS011;36154;51.674;7.824;2023-04-06T05:12:46;7.68;;;2.70;;
48871;SDS011;36154;51.674;7.824;2023-04-06T05:15:11;10.55;;;2.92;;
48871;SDS011;36154;51.674;7.824;2023-04-06T05:17:37;14.77;;;2.70;;
48871;SDS011;36154;51.674;7.824;2023-04-06T05:20:03;9.60;;;2.90;;
48871;SDS011;36154;51.674;7.824;2023-04-06T05:22:29;7.78;;;2.35;;
48871;SDS011;36154;51.674;7.824;2023-04-06T05:24:54;7.03;;;3.08;;
48871;SDS011;36154;51.674;7.824;2023-04-06T05:27:20;9.65;;;2.50;;
48871;SDS011;36154;51.674;7.824;2023-04-06T05:29:45;7.07;;;2.58;;
48871;SDS011;36154;51.674;7.824;2023-04-06T05:32:10;6.97;;;2.47;;
48871;SDS011;36154;51.674;7.824;2023-04-06T05:34:38;4.43;;;1.92;;
48871;SDS011;36154;51.674;7.824;2023-04-06T05:37:04;7.43;;;2.28;;
48871;SDS011;36154;51.674;7.824;2023-04-06T05:39:29;7.47;;;2.42;;
48871;SDS011;36154;51.674;7.824;2023-04-06T05:41:55;9.70;;;2.25;;
48871;SDS011;36154;51.674;7.824;2023-04-06T05:44:20;4.03;;;1.67;;
48871;SDS011;36154;51.674;7.824;2023-04-06T05:46:45;4.55;;;1.65;;
48871;SDS011;36154;51.674;7.824;2023-04-06T05:49:11;4.07;;;1.63;;
48871;SDS011;36154;51.674;7.824;2023-04-06T05:51:37;2.60;;;1.60;;
48871;SDS011;36154;51.674;7.824;2023-04-06T05:54:02;4.65;;;1.65;;
48871;SDS011;36154;51.674;7.824;2023-04-06T05:56:27;4.53;;;1.65;;
48871;SDS011;36154;51.674;7.824;2023-04-06T05:58:55;4.70;;;2.15;;
48871;SDS011;36154;51.674;7.824;2023-04-06T06:01:21;6.38;;;1.92;;
48871;SDS011;36154;51.674;7.824;2023-04-06T06:03:46;4.93;;;1.70;;
48871;SDS011;36154;51.674;7.824;2023-04-06T06:06:12;5.40;;;1.83;;
48871;SDS011;36154;51.674;7.824;2023-04-06T06:08:37;2.95;;;1.48;;
48871;SDS011;36154;51.674;7.824;2023-04-06T06:11:02;3.92;;;1.60;;
48871;SDS011;36154;51.674;7.824;2023-04-06T06:13:28;7.63;;;1.50;;
48871;SDS011;36154;51.674;7.824;2023-04-06T06:15:53;3.65;;;1.55;;
48871;SDS011;36154;51.674;7.824;2023-04-06T06:18:18;4.20;;;1.90;;
48871;SDS011;36154;51.674;7.824;2023-04-06T06:20:44;3.65;;;1.63;;
48871;SDS011;36154;51.674;7.824;2023-04-06T06:23:09;3.00;;;1.73;;
48871;SDS011;36154;51.674;7.824;2023-04-06T06:25:35;2.95;;;1.60;;
48871;SDS011;36154;51.674;7.824;2023-04-06T06:28:00;2.80;;;1.55;;
48871;SDS011;36154;51.674;7.824;2023-04-06T06:30:25;3.13;;;1.60;;
48871;SDS011;36154;51.674;7.824;2023-04-06T06:32:51;2.35;;;1.45;;
48871;SDS011;36154;51.674;7.824;2023-04-06T06:35:16;2.08;;;1.10;;
48871;SDS011;36154;51.674;7.824;2023-04-06T06:37:44;2.80;;;1.23;;
48871;SDS011;36154;51.674;7.824;2023-04-06T06:40:09;2.33;;;1.25;;
48871;SDS011;36154;51.674;7.824;2023-04-06T06:42:37;1.60;;;1.10;;
48871;SDS011;36154;51.674;7.824;2023-04-06T06:45:06;2.85;;;1.33;;
48871;SDS011;36154;51.674;7.824;2023-04-06T06:47:32;1.65;;;1.20;;
48871;SDS011;36154;51.674;7.824;2023-04-06T06:49:57;3.80;;;1.55;;
48871;SDS011;36154;51.674;7.824;2023-04-06T06:52:22;4.32;;;2.13;;
48871;SDS011;36154;51.674;7.824;2023-04-06T06:54:48;3.70;;;1.90;;
48871;SDS011;36154;51.674;7.824;2023-04-06T06:57:16;3.17;;;1.60;;
48871;SDS011;36154;51.674;7.824;2023-04-06T06:59:41;4.75;;;1.67;;
48871;SDS011;36154;51.674;7.824;2023-04-06T07:02:07;3.70;;;1.40;;
48871;SDS011;36154;51.674;7.824;2023-04-06T07:04:32;3.67;;;1.75;;
48871;SDS011;36154;51.674;7.824;2023-04-06T07:06:57;4.65;;;1.60;;
48871;SDS011;36154;51.674;7.824;2023-04-06T07:09:23;4.50;;;1.88;;
48871;SDS011;36154;51.674;7.824;2023-04-06T07:11:48;1.50;;;1.40;;
48871;SDS011;36154;51.674;7.824;2023-04-06T07:14:14;4.05;;;1.60;;
48871;SDS011;36154;51.674;7.824;2023-04-06T07:16:40;2.45;;;1.58;;
48871;SDS011;36154;51.674;7.824;2023-04-06T07:19:06;3.50;;;1.55;;
48871;SDS011;36154;51.674;7.824;2023-04-06T07:21:31;5.55;;;1.90;;
48871;SDS011;36154;51.674;7.824;2023-04-06T07:23:56;4.82;;;1.70;;
48871;SDS011;36154;51.674;7.824;2023-04-06T07:26:22;5.68;;;1.50;;
48871;SDS011;36154;51.674;7.824;2023-04-06T07:28:47;4.82;;;1.80;;
48871;SDS011;36154;51.674;7.824;2023-04-06T07:31:12;3.60;;;1.50;;
48871;SDS011;36154;51.674;7.824;2023-04-06T07:33:37;2.47;;;1.27;;
48871;SDS011;36154;51.674;7.824;2023-04-06T07:36:03;4.13;;;1.45;;
48871;SDS011;36154;51.674;7.824;2023-04-06T07:38:28;2.53;;;1.30;;
48871;SDS011;36154;51.674;7.824;2023-04-06T07:40:54;3.13;;;1.40;;
48871;SDS011;36154;51.674;7.824;2023-04-06T07:43:22;3.28;;;1.33;;
48871;SDS011;36154;51.674;7.824;2023-04-06T07:45:47;3.35;;;1.40;;
48871;SDS011;36154;51.674;7.824;2023-04-06T07:48:12;2.03;;;1.13;;
48871;SDS011;36154;51.674;7.824;2023-04-06T07:50:37;2.97;;;1.33;;
48871;SDS011;36154;51.674;7.824;2023-04-06T07:53:03;4.75;;;1.40;;
48871;SDS011;36154;51.674;7.824;2023-04-06T07:55:28;2.90;;;1.38;;
48871;SDS011;36154;51.674;7.824;2023-04-06T07:57:53;3.25;;;1.73;;
48871;SDS011;36154;51.674;7.824;2023-04-06T08:00:19;3.30;;;1.20;;
48871;SDS011;36154;51.674;7.824;2023-04-06T08:02:45;2.20;;;1.10;;
48871;SDS011;36154;51.674;7.824;2023-04-06T08:05:10;1.98;;;1.20;;
48871;SDS011;36154;51.674;7.824;2023-04-06T08:07:35;9.15;;;1.70;;
48871;SDS011;36154;51.674;7.824;2023-04-06T08:10:01;2.42;;;1.40;;
48871;SDS011;36154;51.674;7.824;2023-04-06T08:12:27;3.67;;;1.50;;
48871;SDS011;36154;51.674;7.824;2023-04-06T08:14:52;2.80;;;1.60;;
48871;SDS011;36154;51.674;7.824;2023-04-06T08:17:17;2.85;;;1.20;;
48871;SDS011;36154;51.674;7.824;2023-04-06T08:19:43;1.67;;;1.30;;
48871;SDS011;36154;51.674;7.824;2023-04-06T08:22:09;1.75;;;1.35;;
48871;SDS011;36154;51.674;7.824;2023-04-06T08:24:35;3.05;;;1.23;;
48871;SDS011;36154;51.674;7.824;2023-04-06T08:27:00;3.80;;;1.20;;
48871;SDS011;36154;51.674;7.824;2023-04-06T08:29:25;2.88;;;1.08;;
48871;SDS011;36154;51.674;7.824;2023-04-06T08:31:51;3.65;;;1.73;;
48871;SDS011;36154;51.674;7.824;2023-04-06T08:34:16;3.40;;;1.60;;
48871;SDS011;36154;51.674;7.824;2023-04-06T08:36:41;2.58;;;1.30;;
48871;SDS011;36154;51.674;7.824;2023-04-06T08:39:06;3.40;;;1.30;;
48871;SDS011;36154;51.674;7.824;2023-04-06T08:41:32;2.22;;;1.10;;
48871;SDS011;36154;51.674;7.824;2023-04-06T08:43:59;2.83;;;1.20;;
48871;SDS011;36154;51.674;7.824;2023-04-06T08:46:26;1.90;;;1.20;;
48871;SDS011;36154;51.674;7.824;2023-04-06T08:48:56;1.92;;;0.95;;
48871;SDS011;36154;51.674;7.824;2023-04-06T08:51:23;1.83;;;1.10;;
48871;SDS011;36154;51.674;7.824;2023-04-06T08:53:49;1.77;;;1.30;;
48871;SDS011;36154;51.674;7.824;2023-04-06T08:56:14;2.50;;;1.20;;
48871;SDS011;36154;51.674;7.824;2023-04-06T08:58:40;1.40;;;1.27;;
48871;SDS011;36154;51.674;7.824;2023-04-06T09:01:07;2.15;;;1.10;;
48871;SDS011;36154;51.674;7.824;2023-04-06T09:03:35;1.88;;;0.90;;
48871;SDS011;36154;51.674;7.824;2023-04-06T09:06:04;2.53;;;0.90;;
48871;SDS011;36154;51.674;7.824;2023-04-06T09:08:30;1.70;;;1.10;;
48871;SDS011;36154;51.674;7.824;2023-04-06T09:10:55;3.70;;;1.00;;
48871;SDS011;36154;51.674;7.824;2023-04-06T09:13:21;1.60;;;0.80;;
48871;SDS011;36154;51.674;7.824;2023-04-06T09:15:46;1.55;;;1.10;;
48871;SDS011;36154;51.674;7.824;2023-04-06T09:18:29;1.15;;;1.02;;
48871;SDS011;36154;51.674;7.824;2023-04-06T09:21:02;1.20;;;0.77;;
48871;SDS011;36154;51.674;7.824;2023-04-06T09:23:29;1.60;;;1.02;;
48871;SDS011;36154;51.674;7.824;2023-04-06T09:26:08;2.25;;;1.00;;
48871;SDS011;36154;51.674;7.824;2023-04-06T09:31:34;1.23;;;0.95;;
48871;SDS011;36154;51.674;7.824;2023-04-06T09:34:00;1.25;;;0.80;;
48871;SDS011;36154;51.674;7.824;2023-04-06T09:36:32;0.80;;;0.80;;
48871;SDS011;36154;51.674;7.824;2023-04-06T09:39:01;0.70;;;0.70;;
48871;SDS011;36154;51.674;7.824;2023-04-06T09:41:28;1.55;;;1.10;;
48871;SDS011;36154;51.674;7.824;2023-04-06T09:44:11;1.00;;;0.90;;
48871;SDS011;36154;51.674;7.824;2023-04-06T09:46:40;2.53;;;0.85;;
48871;SDS011;36154;51.674;7.824;2023-04-06T09:49:07;0.98;;;0.60;;
48871;SDS011;36154;51.674;7.824;2023-04-06T09:51:38;1.55;;;1.00;;
48871;SDS011;36154;51.674;7.824;2023-04-06T09:54:04;2.30;;;0.73;;
48871;SDS011;36154;51.674;7.824;2023-04-06T09:56:33;1.35;;;0.80;;
48871;SDS011;36154;51.674;7.824;2023-04-06T09:59:05;1.30;;;0.85;;
48871;SDS011;36154;51.674;7.824;2023-04-06T10:01:37;0.77;;;0.77;;
48871;SDS011;36154;51.674;7.824;2023-04-06T10:04:19;1.65;;;0.77;;
48871;SDS011;36154;51.674;7.824;2023-04-06T10:06:52;2.08;;;0.98;;
48871;SDS011;36154;51.674;7.824;2023-04-06T10:09:20;0.52;;;0.52;;
48871;SDS011;36154;51.674;7.824;2023-04-06T10:11:50;0.98;;;0.60;;
48871;SDS011;36154;51.674;7.824;2023-04-06T10:14:16;0.80;;;0.68;;
48871;SDS011;36154;51.674;7.824;2023-04-06T10:16:42;0.50;;;0.50;;
48871;SDS011;36154;51.674;7.824;2023-04-06T10:19:16;1.48;;;0.45;;
48871;SDS011;36154;51.674;7.824;2023-04-06T10:21:50;0.55;;;0.52;;
48871;SDS011;36154;51.674;7.824;2023-04-06T10:24:19;1.15;;;0.50;;
48871;SDS011;36154;51.674;7.824;2023-04-06T10:26:56;0.57;;;0.47;;
48871;SDS011;36154;51.674;7.824;2023-04-06T10:29:42;2.58;;;0.52;;
48871;SDS011;36154;51.674;7.824;2023-04-06T10:32:08;0.40;;;0.40;;
48871;SDS011;36154;51.674;7.824;2023-04-06T10:34:34;0.75;;;0.40;;
48871;SDS011;36154;51.674;7.824;2023-04-06T10:37:10;0.35;;;0.35;;
48871;SDS011;36154;51.674;7.824;2023-04-06T10:39:45;0.40;;;0.40;;
48871;SDS011;36154;51.674;7.824;2023-04-06T10:42:37;0.60;;;0.40;;
48871;SDS011;36154;51.674;7.824;2023-04-06T10:45:06;0.75;;;0.60;;
48871;SDS011;36154;51.674;7.824;2023-04-06T10:47:39;0.57;;;0.40;;
48871;SDS011;36154;51.674;7.824;2023-04-06T10:50:05;0.40;;;0.40;;
48871;SDS011;36154;51.674;7.824;2023-04-06T10:52:31;0.40;;;0.30;;
48871;SDS011;36154;51.674;7.824;2023-04-06T10:54:56;0.52;;;0.30;;
48871;SDS011;36154;51.674;7.824;2023-04-06T10:57:28;0.30;;;0.30;;
48871;SDS011;36154;51.674;7.824;2023-04-06T10:59:55;0.20;;;0.20;;
48871;SDS011;36154;51.674;7.824;2023-04-06T11:02:21;0.30;;;0.30;;
48871;SDS011;36154;51.674;7.824;2023-04-06T11:04:56;0.20;;;0.20;;
48871;SDS011;36154;51.674;7.824;2023-04-06T11:07:25;0.40;;;0.40;;
48871;SDS011;36154;51.674;7.824;2023-04-06T11:09:52;0.35;;;0.30;;
48871;SDS011;36154;51.674;7.824;2023-04-06T11:12:22;0.30;;;0.30;;
48871;SDS011;36154;51.674;7.824;2023-04-06T11:15:00;0.45;;;0.40;;
48871;SDS011;36154;51.674;7.824;2023-04-06T11:17:34;0.20;;;0.20;;
48871;SDS011;36154;51.674;7.824;2023-04-06T11:20:02;0.30;;;0.30;;
48871;SDS011;36154;51.674;7.824;2023-04-06T11:22:29;0.30;;;0.30;;
48871;SDS011;36154;51.674;7.824;2023-04-06T11:25:08;0.45;;;0.20;;
48871;SDS011;36154;51.674;7.824;2023-04-06T11:27:34;0.30;;;0.30;;
48871;SDS011;36154;51.674;7.824;2023-04-06T11:30:01;0.38;;;0.38;;
48871;SDS011;36154;51.674;7.824;2023-04-06T11:32:27;0.30;;;0.30;;
48871;SDS011;36154;51.674;7.824;2023-04-06T11:34:52;0.40;;;0.40;;
48871;SDS011;36154;51.674;7.824;2023-04-06T11:37:18;0.30;;;0.30;;
48871;SDS011;36154;51.674;7.824;2023-04-06T11:39:47;0.75;;;0.20;;
48871;SDS011;36154;51.674;7.824;2023-04-06T11:44:53;0.30;;;0.30;;
48871;SDS011;36154;51.674;7.824;2023-04-06T11:47:20;0.20;;;0.20;;
48871;SDS011;36154;51.674;7.824;2023-04-06T11:49:52;0.38;;;0.38;;
48871;SDS011;36154;51.674;7.824;2023-04-06T11:54:50;0.47;;;0.47;;
48871;SDS011;36154;51.674;7.824;2023-04-06T11:57:17;0.65;;;0.30;;
48871;SDS011;36154;51.674;7.824;2023-04-06T11:59:44;0.57;;;0.57;;
48871;SDS011;36154;51.674;7.824;2023-04-06T12:02:10;0.40;;;0.40;;
48871;SDS011;36154;51.674;7.824;2023-04-06T12:04:35;1.65;;;0.70;;
48871;SDS011;36154;51.674;7.824;2023-04-06T12:07:01;0.52;;;0.52;;
48871;SDS011;36154;51.674;7.824;2023-04-06T12:09:27;1.95;;;0.50;;
48871;SDS011;36154;51.674;7.824;2023-04-06T12:11:52;0.52;;;0.52;;
48871;SDS011;36154;51.674;7.824;2023-04-06T12:14:17;0.52;;;0.52;;
48871;SDS011;36154;51.674;7.824;2023-04-06T12:16:43;0.68;;;0.68;;
48871;SDS011;36154;51.674;7.824;2023-04-06T12:19:08;0.70;;;0.70;;
48871;SDS011;36154;51.674;7.824;2023-04-06T12:21:34;0.77;;;0.60;;
48871;SDS011;36154;51.674;7.824;2023-04-06T12:24:02;0.82;;;0.50;;
48871;SDS011;36154;51.674;7.824;2023-04-06T12:26:27;0.57;;;0.57;;
48871;SDS011;36154;51.674;7.824;2023-04-06T12:28:53;1.55;;;0.82;;
48871;SDS011;36154;51.674;7.824;2023-04-06T12:31:19;0.60;;;0.60;;
48871;SDS011;36154;51.674;7.824;2023-04-06T12:33:51;0.60;;;0.60;;
48871;SDS011;36154;51.674;7.824;2023-04-06T12:36:17;0.85;;;0.85;;
48871;SDS011;36154;51.674;7.824;2023-04-06T12:38:44;0.68;;;0.68;;
48871;SDS011;36154;51.674;7.824;2023-04-06T12:41:10;0.80;;;0.80;;
48871;SDS011;36154;51.674;7.824;2023-04-06T12:43:37;0.75;;;0.75;;
48871;SDS011;36154;51.674;7.824;2023-04-06T12:46:02;0.82;;;0.82;;
48871;SDS011;36154;51.674;7.824;2023-04-06T12:48:28;0.70;;;0.70;;
48871;SDS011;36154;51.674;7.824;2023-04-06T12:51:00;0.90;;;0.75;;
48871;SDS011;36154;51.674;7.824;2023-04-06T12:53:28;0.80;;;0.80;;
48871;SDS011;36154;51.674;7.824;2023-04-06T12:55:53;1.27;;;1.17;;
48871;SDS011;36154;51.674;7.824;2023-04-06T12:58:20;0.60;;;0.60;;
48871;SDS011;36154;51.674;7.824;2023-04-06T13:00:46;0.80;;;0.73;;
48871;SDS011;36154;51.674;7.824;2023-04-06T13:03:12;0.70;;;0.70;;
48871;SDS011;36154;51.674;7.824;2023-04-06T13:05:47;1.13;;;0.68;;
48871;SDS011;36154;51.674;7.824;2023-04-06T13:08:13;0.82;;;0.82;;
48871;SDS011;36154;51.674;7.824;2023-04-06T13:10:43;0.70;;;0.70;;
48871;SDS011;36154;51.674;7.824;2023-04-06T13:13:12;0.60;;;0.60;;
48871;SDS011;36154;51.674;7.824;2023-04-06T13:15:38;0.68;;;0.68;;
48871;SDS011;36154;51.674;7.824;2023-04-06T13:18:04;2.13;;;0.80;;
48871;SDS011;36154;51.674;7.824;2023-04-06T13:20:29;0.88;;;0.70;;
48871;SDS011;36154;51.674;7.824;2023-04-06T13:22:55;2.03;;;0.80;;
48871;SDS011;36154;51.674;7.824;2023-04-06T13:25:20;0.63;;;0.63;;
48871;SDS011;36154;51.674;7.824;2023-04-06T13:27:45;3.13;;;1.50;;
48871;SDS011;36154;51.674;7.824;2023-04-06T13:30:12;3.10;;;2.42;;
48871;SDS011;36154;51.674;7.824;2023-04-06T13:32:38;2.22;;;2.10;;
48871;SDS011;36154;51.674;7.824;2023-04-06T13:35:04;4.50;;;3.50;;
48871;SDS011;36154;51.674;7.824;2023-04-06T13:37:31;2.47;;;2.38;;
48871;SDS011;36154;51.674;7.824;2023-04-06T13:39:57;2.58;;;2.10;;
48871;SDS011;36154;51.674;7.824;2023-04-06T13:42:22;3.10;;;1.80;;
48871;SDS011;36154;51.674;7.824;2023-04-06T13:44:47;2.20;;;2.10;;
48871;SDS011;36154;51.674;7.824;2023-04-06T13:47:15;8.05;;;2.30;;
48871;SDS011;36154;51.674;7.824;2023-04-06T13:49:41;3.13;;;2.05;;
48871;SDS011;36154;51.674;7.824;2023-04-06T13:52:06;3.25;;;3.05;;
48871;SDS011;36154;51.674;7.824;2023-04-06T13:54:31;2.47;;;2.38;;
48871;SDS011;36154;51.674;7.824;2023-04-06T13:56:57;4.13;;;2.47;;
48871;SDS011;36154;51.674;7.824;2023-04-06T13:59:22;3.55;;;3.25;;
48871;SDS011;36154;51.674;7.824;2023-04-06T14:01:47;2.95;;;2.75;;
48871;SDS011;36154;51.674;7.824;2023-04-06T14:04:13;3.28;;;2.97;;
48871;SDS011;36154;51.674;7.824;2023-04-06T14:06:38;3.55;;;3.22;;
48871;SDS011;36154;51.674;7.824;2023-04-06T14:09:03;3.95;;;3.42;;
48871;SDS011;36154;51.674;7.824;2023-04-06T14:11:29;3.25;;;2.95;;
48871;SDS011;36154;51.674;7.824;2023-04-06T14:13:54;3.00;;;2.88;;
48871;SDS011;36154;51.674;7.824;2023-04-06T14:16:20;3.13;;;2.92;;
48871;SDS011;36154;51.674;7.824;2023-04-06T14:18:46;3.83;;;3.15;;
48871;SDS011;36154;51.674;7.824;2023-04-06T14:21:11;3.45;;;3.20;;
48871;SDS011;36154;51.674;7.824;2023-04-06T14:23:36;3.72;;;3.00;;
48871;SDS011;36154;51.674;7.824;2023-04-06T14:26:06;4.38;;;3.00;;
48871;SDS011;36154;51.674;7.824;2023-04-06T14:28:33;3.40;;;3.10;;
48871;SDS011;36154;51.674;7.824;2023-04-06T14:31:00;2.97;;;2.78;;
48871;SDS011;36154;51.674;7.824;2023-04-06T14:33:26;4.20;;;3.10;;
48871;SDS011;36154;51.674;7.824;2023-04-06T14:35:52;3.40;;;3.20;;
48871;SDS011;36154;51.674;7.824;2023-04-06T14:38:17;2.95;;;2.75;;
48871;SDS011;36154;51.674;7.824;2023-04-06T14:40:43;3.00;;;2.70;;
48871;SDS011;36154;51.674;7.824;2023-04-06T14:43:08;3.00;;;2.80;;
48871;SDS011;36154;51.674;7.824;2023-04-06T14:45:33;2.97;;;2.70;;
48871;SDS011;36154;51.674;7.824;2023-04-06T14:48:04;3.15;;;2.95;;
48871;SDS011;36154;51.674;7.824;2023-04-06T14:50:31;2.35;;;2.20;;
48871;SDS011;36154;51.674;7.824;2023-04-06T14:52:56;2.75;;;2.58;;